Time;durP1;ratioP1;P1;durP2;ratioP2;P2;SDS_P1;SDS_P2;PMS_P1;PMS_P2;Temp;Humidity;BMP_temperature;BMP_pressure;BME280_temperature;BME280_humidity;BME280_pressure;Samples;Min_cycle;Max_cycle;Signal;HPM_P1;HPM_P2
2023/12/03 00:02:00;;;;;;;11.23;5.03;;;0.30;99.90;;;;;;5061848;28;20064;-63
2023/12/03 00:04:26;;;;;;;10.93;4.95;;;0.30;99.90;;;;;;5059514;28;20506;-65
2023/12/03 00:06:52;;;;;;;9.77;4.90;;;0.40;99.90;;;;;;5052965;28;20048;-65
2023/12/03 00:09:18;;;;;;;8.73;4.90;;;0.30;99.90;;;;;;5044958;28;20056;-66
2023/12/03 00:11:44;;;;;;;10.10;4.40;;;0.30;99.90;;;;;;5048892;28;20040;-65
2023/12/03 00:14:09;;;;;;;11.20;4.82;;;0.30;99.90;;;;;;5047268;28;20144;-65
2023/12/03 00:16:35;;;;;;;10.32;4.38;;;0.30;99.90;;;;;;5054042;28;20040;-66
2023/12/03 00:19:01;;;;;;;8.52;4.25;;;0.30;99.90;;;;;;5050449;28;20080;-65
2023/12/03 00:21:27;;;;;;;9.13;4.32;;;0.30;99.90;;;;;;5050181;28;20055;-65
2023/12/03 00:23:52;;;;;;;8.52;4.28;;;0.30;99.90;;;;;;5036874;28;20133;-66
2023/12/03 00:26:18;;;;;;;9.95;4.75;;;0.20;99.90;;;;;;5049812;28;20123;-66
2023/12/03 00:28:44;;;;;;;10.48;5.03;;;0.30;99.90;;;;;;5041705;28;20048;-66
2023/12/03 00:31:09;;;;;;;9.85;4.53;;;0.20;99.90;;;;;;5046400;28;20056;-66
2023/12/03 00:33:35;;;;;;;8.20;4.35;;;0.20;99.90;;;;;;5056215;28;20040;-66
2023/12/03 00:36:01;;;;;;;10.82;5.07;;;0.20;99.90;;;;;;5052795;28;20395;-66
2023/12/03 00:38:26;;;;;;;9.80;4.78;;;0.20;99.90;;;;;;5044349;28;20133;-66
2023/12/03 00:40:52;;;;;;;8.65;4.55;;;0.20;99.90;;;;;;5047023;28;20067;-66
2023/12/03 00:43:18;;;;;;;8.38;4.57;;;0.10;99.90;;;;;;5049152;28;20094;-67
2023/12/03 00:45:43;;;;;;;9.98;4.80;;;0.40;99.90;;;;;;5046033;28;20459;-65
2023/12/03 00:48:09;;;;;;;10.98;4.75;;;0.20;99.90;;;;;;5054425;28;20732;-65
2023/12/03 00:50:35;;;;;;;9.73;4.45;;;0.10;99.90;;;;;;5060762;28;20097;-65
2023/12/03 00:53:01;;;;;;;10.25;4.68;;;0.10;99.90;;;;;;5051075;28;20041;-65
2023/12/03 00:55:26;;;;;;;9.65;4.78;;;0.10;99.90;;;;;;5047526;28;20099;-65
2023/12/03 00:57:52;;;;;;;9.57;4.53;;;0.10;99.90;;;;;;5051702;28;20469;-65
2023/12/03 01:00:18;;;;;;;7.85;3.95;;;0.10;99.90;;;;;;5045788;28;20131;-65
2023/12/03 01:02:44;;;;;;;8.25;4.25;;;0.00;99.90;;;;;;5051989;28;20963;-65
2023/12/03 01:05:09;;;;;;;7.50;4.03;;;0.00;99.90;;;;;;5050972;28;20204;-65
2023/12/03 01:07:35;;;;;;;7.47;3.63;;;0.00;99.90;;;;;;5045067;28;20082;-65
2023/12/03 01:10:01;;;;;;;9.65;4.03;;;0.00;99.90;;;;;;5052052;28;20066;-66
2023/12/03 01:12:27;;;;;;;7.72;3.83;;;0.00;99.90;;;;;;5055286;28;20060;-65
2023/12/03 01:14:52;;;;;;;9.48;4.05;;;0.00;99.90;;;;;;5036342;28;20382;-63
2023/12/03 01:17:18;;;;;;;8.98;4.00;;;-0.10;99.90;;;;;;5059224;28;20051;-66
2023/12/03 01:19:44;;;;;;;9.48;4.40;;;-0.10;99.90;;;;;;5052478;28;20045;-65
2023/12/03 01:22:09;;;;;;;7.57;3.75;;;-0.10;99.90;;;;;;5054920;28;20032;-65
2023/12/03 01:24:35;;;;;;;7.35;4.07;;;-0.10;99.90;;;;;;5048831;28;20048;-65
2023/12/03 01:27:01;;;;;;;7.68;4.20;;;0.10;99.90;;;;;;5050766;28;20049;-65
2023/12/03 01:29:27;;;;;;;8.27;3.78;;;-0.10;99.90;;;;;;5054914;28;20542;-65
2023/12/03 01:31:52;;;;;;;9.85;3.67;;;-0.10;99.90;;;;;;5057972;28;20060;-65
2023/12/03 01:34:18;;;;;;;8.05;3.95;;;-0.20;99.90;;;;;;5059701;28;20386;-65
2023/12/03 01:36:44;;;;;;;7.00;3.50;;;-0.20;99.90;;;;;;5058888;28;20053;-65
2023/12/03 01:39:09;;;;;;;7.43;3.67;;;-0.20;99.90;;;;;;5040175;28;20052;-65
2023/12/03 01:41:35;;;;;;;9.52;3.80;;;-0.20;99.90;;;;;;5053513;28;20082;-65
2023/12/03 01:44:01;;;;;;;9.07;3.90;;;-0.20;99.90;;;;;;5049480;28;20115;-65
2023/12/03 01:46:27;;;;;;;7.80;3.78;;;0.70;99.90;;;;;;5048813;28;20040;-65
2023/12/03 01:48:54;;;;;;;7.40;3.40;;;-0.30;99.90;;;;;;5056061;28;20078;-66
2023/12/03 01:51:20;;;;;;;8.77;3.35;;;-0.30;99.90;;;;;;5069277;28;20044;-65
2023/12/03 01:53:48;;;;;;;8.38;3.95;;;-0.30;99.90;;;;;;5040986;28;20041;-66
2023/12/03 01:56:15;;;;;;;6.65;3.65;;;-0.30;99.90;;;;;;5048908;28;20095;-65
2023/12/03 01:58:40;;;;;;;7.85;3.63;;;-0.30;99.90;;;;;;5049519;28;20234;-65
2023/12/03 02:01:06;;;;;;;8.60;3.67;;;-0.40;99.90;;;;;;5032529;28;20061;-66
2023/12/03 02:03:32;;;;;;;8.73;3.42;;;-0.30;99.90;;;;;;5041449;28;20587;-65
2023/12/03 02:06:09;;;;;;;8.65;3.88;;;-0.40;99.90;;;;;;5037322;28;20691;-65
2023/12/03 02:08:35;;;;;;;7.15;3.33;;;-0.40;99.90;;;;;;5051310;28;20067;-65
2023/12/03 02:11:06;;;;;;;6.85;3.53;;;-0.40;99.90;;;;;;5051784;28;20108;-65
2023/12/03 02:13:34;;;;;;;8.13;3.93;;;-0.40;99.90;;;;;;5072419;28;20067;-65
2023/12/03 02:15:59;;;;;;;7.82;3.80;;;-0.40;99.90;;;;;;5052551;28;20409;-66
2023/12/03 02:18:26;;;;;;;7.00;3.15;;;-0.40;99.90;;;;;;5045644;28;20439;-66
2023/12/03 02:20:53;;;;;;;8.73;3.65;;;-0.50;99.90;;;;;;5054358;28;20525;-66
2023/12/03 02:23:19;;;;;;;6.95;3.60;;;-0.50;99.90;;;;;;5051726;28;20037;-66
2023/12/03 02:25:46;;;;;;;8.82;3.63;;;-0.50;99.90;;;;;;5053240;28;20043;-67
2023/12/03 02:28:12;;;;;;;7.22;3.38;;;-0.50;99.90;;;;;;5053399;28;20052;-67
2023/12/03 02:30:37;;;;;;;10.07;3.42;;;-0.50;99.90;;;;;;5055103;28;20040;-66
2023/12/03 02:33:03;;;;;;;8.15;3.60;;;-0.60;99.90;;;;;;5062675;28;20400;-66
2023/12/03 02:35:29;;;;;;;9.25;3.80;;;-0.30;99.90;;;;;;5054141;28;20063;-66
2023/12/03 02:37:55;;;;;;;9.30;3.35;;;-0.60;99.90;;;;;;5061898;28;20052;-65
2023/12/03 02:40:23;;;;;;;8.15;3.40;;;-0.60;99.90;;;;;;5051659;28;20159;-65
2023/12/03 02:42:49;;;;;;;7.32;3.22;;;-0.70;99.90;;;;;;5053430;28;20127;-66
2023/12/03 02:45:14;;;;;;;9.20;3.60;;;-0.70;99.90;;;;;;5054486;28;20058;-66
2023/12/03 02:47:40;;;;;;;8.85;3.13;;;-0.70;99.90;;;;;;5052899;28;20104;-66
2023/12/03 02:50:06;;;;;;;5.63;2.80;;;-0.70;99.90;;;;;;5055461;28;20048;-67
2023/12/03 02:52:32;;;;;;;7.22;3.50;;;-0.70;99.90;;;;;;5053464;28;20044;-66
2023/12/03 02:54:58;;;;;;;6.18;3.13;;;-1.70;99.90;;;;;;5035842;28;20055;-66
2023/12/03 02:57:23;;;;;;;8.68;3.20;;;-0.80;99.90;;;;;;5051035;28;20036;-67
2023/12/03 02:59:49;;;;;;;7.43;4.05;;;-0.80;99.90;;;;;;5054041;28;20036;-67
2023/12/03 03:02:15;;;;;;;7.10;3.17;;;-0.80;99.90;;;;;;5050914;28;20120;-66
2023/12/03 03:04:41;;;;;;;6.20;2.85;;;-0.80;99.90;;;;;;5051914;28;20045;-64
2023/12/03 03:07:07;;;;;;;7.97;3.38;;;-0.80;99.90;;;;;;5046392;28;20114;-65
2023/12/03 03:09:32;;;;;;;6.90;3.25;;;-0.70;99.90;;;;;;5058397;28;20045;-66
2023/12/03 03:11:58;;;;;;;6.45;3.00;;;-0.10;99.90;;;;;;5062081;28;20110;-65
2023/12/03 03:14:24;;;;;;;7.68;3.38;;;-0.90;99.90;;;;;;5054300;28;20098;-65
2023/12/03 03:16:50;;;;;;;7.57;3.72;;;-0.50;99.90;;;;;;5054016;28;20531;-65
2023/12/03 03:19:16;;;;;;;8.20;2.80;;;-0.90;99.90;;;;;;5058955;28;20386;-69
2023/12/03 03:21:42;;;;;;;6.82;3.15;;;-0.90;99.90;;;;;;5060314;28;20059;-65
2023/12/03 03:24:08;;;;;;;6.22;2.85;;;-0.90;99.90;;;;;;5059285;28;20056;-65
2023/12/03 03:26:34;;;;;;;6.75;2.85;;;-0.90;99.90;;;;;;5059841;28;20566;-65
2023/12/03 03:28:59;;;;;;;6.80;3.17;;;-1.00;99.90;;;;;;5054396;28;20052;-66
2023/12/03 03:31:25;;;;;;;6.78;3.10;;;-1.00;99.90;;;;;;5041824;28;20061;-65
2023/12/03 03:33:51;;;;;;;5.85;2.70;;;-1.00;99.90;;;;;;5057360;28;20804;-65
2023/12/03 03:36:17;;;;;;;5.93;2.80;;;-0.30;99.90;;;;;;5057961;28;20056;-65
2023/12/03 03:38:43;;;;;;;6.45;3.10;;;-1.00;99.90;;;;;;5055799;28;20044;-65
2023/12/03 03:41:10;;;;;;;6.78;2.88;;;-1.10;99.90;;;;;;5053018;28;20515;-66
2023/12/03 03:43:35;;;;;;;6.07;2.72;;;-1.10;99.90;;;;;;5033843;28;20108;-64
2023/12/03 03:46:01;;;;;;;8.88;3.70;;;-1.10;99.90;;;;;;5053719;28;20135;-63
2023/12/03 03:48:27;;;;;;;6.20;2.85;;;-1.10;99.90;;;;;;5051141;28;20448;-65
2023/12/03 03:50:53;;;;;;;6.43;3.22;;;-1.10;99.90;;;;;;5056785;28;20119;-66
2023/12/03 03:53:18;;;;;;;7.15;3.15;;;-1.10;99.90;;;;;;5058822;28;20036;-65
2023/12/03 03:55:45;;;;;;;7.10;3.33;;;-1.10;99.90;;;;;;5054902;28;20040;-65
2023/12/03 03:58:11;;;;;;;8.40;3.13;;;-1.10;99.90;;;;;;5052616;28;20230;-65
2023/12/03 04:00:36;;;;;;;8.27;3.45;;;-1.20;99.90;;;;;;5048681;28;20402;-65
2023/12/03 04:03:02;;;;;;;8.77;3.63;;;-1.20;99.90;;;;;;5059343;28;20049;-65
2023/12/03 04:05:28;;;;;;;5.75;2.97;;;-1.20;99.90;;;;;;5059128;28;20632;-65
2023/12/03 04:07:54;;;;;;;7.53;3.30;;;-1.20;99.90;;;;;;5054313;28;20040;-65
2023/12/03 04:10:20;;;;;;;7.32;4.18;;;-1.20;99.90;;;;;;5059711;28;20036;-66
2023/12/03 04:12:47;;;;;;;10.20;3.75;;;-0.80;99.90;;;;;;5049109;28;20045;-64
2023/12/03 04:15:13;;;;;;;7.97;3.42;;;-1.30;99.90;;;;;;5040765;28;20097;-65
2023/12/03 04:17:39;;;;;;;7.45;3.60;;;-1.30;99.90;;;;;;5054996;28;20037;-65
2023/12/03 04:20:06;;;;;;;7.47;4.25;;;-0.70;99.90;;;;;;5052057;28;20032;-65
2023/12/03 04:22:32;;;;;;;8.90;4.22;;;-1.30;99.90;;;;;;5049648;28;20119;-66
2023/12/03 04:24:58;;;;;;;8.00;4.18;;;-1.30;99.90;;;;;;5058831;28;20056;-65
2023/12/03 04:27:25;;;;;;;8.18;4.43;;;-1.30;99.90;;;;;;5052760;28;20045;-64
2023/12/03 04:29:51;;;;;;;9.48;5.28;;;-1.30;99.90;;;;;;5047588;28;20124;-64
2023/12/03 04:32:16;;;;;;;8.18;5.03;;;-1.30;99.90;;;;;;5035598;28;20209;-65
2023/12/03 04:34:42;;;;;;;12.00;5.30;;;-1.00;99.90;;;;;;5053039;28;20040;-66
2023/12/03 04:37:08;;;;;;;10.45;4.82;;;-1.30;99.90;;;;;;5057031;28;20052;-65
2023/12/03 04:39:35;;;;;;;9.65;5.65;;;-1.30;99.90;;;;;;5051695;28;20041;-65
2023/12/03 04:42:01;;;;;;;9.65;5.45;;;-1.30;99.90;;;;;;5053885;28;20048;-65
2023/12/03 04:44:27;;;;;;;10.75;5.53;;;-1.30;99.90;;;;;;5056064;28;20051;-65
2023/12/03 04:46:53;;;;;;;8.63;5.15;;;-1.30;99.90;;;;;;5044899;28;20041;-65
2023/12/03 04:49:19;;;;;;;9.73;5.90;;;-1.30;99.90;;;;;;5051419;28;20058;-64
2023/12/03 04:51:44;;;;;;;9.23;5.25;;;-1.30;99.90;;;;;;5056088;28;20746;-65
2023/12/03 04:54:10;;;;;;;9.73;5.68;;;-1.30;99.90;;;;;;5056671;28;20218;-65
2023/12/03 04:56:36;;;;;;;13.52;7.55;;;-1.30;99.90;;;;;;5049821;28;20067;-65
2023/12/03 04:59:01;;;;;;;20.60;8.00;;;-1.30;99.90;;;;;;5048059;28;20060;-65
2023/12/03 05:01:27;;;;;;;24.40;9.00;;;-1.30;99.90;;;;;;5048106;28;20045;-65
2023/12/03 05:03:53;;;;;;;17.10;8.50;;;-1.30;99.90;;;;;;5045978;28;20594;-65
2023/12/03 05:06:19;;;;;;;53.10;10.43;;;-1.10;99.90;;;;;;5056264;28;20106;-65
2023/12/03 05:08:45;;;;;;;23.25;9.77;;;-1.30;99.90;;;;;;5062556;28;20040;-66
2023/12/03 05:11:10;;;;;;;57.38;9.90;;;-1.20;99.90;;;;;;5054008;28;20310;-65
2023/12/03 05:13:36;;;;;;;72.03;11.15;;;-1.20;99.90;;;;;;5050811;28;20055;-65
2023/12/03 05:16:04;;;;;;;60.08;11.95;;;-1.30;99.90;;;;;;5050486;28;20048;-64
2023/12/03 05:18:30;;;;;;;53.85;11.18;;;-1.20;99.90;;;;;;5053513;28;20068;-64
2023/12/03 05:20:57;;;;;;;36.70;9.63;;;-1.20;99.90;;;;;;5052472;28;22037;-65
2023/12/03 05:23:23;;;;;;;33.17;10.27;;;-1.20;99.90;;;;;;5051001;28;20528;-65
2023/12/03 05:25:49;;;;;;;70.53;11.20;;;-1.20;99.90;;;;;;5040850;28;20048;-65
2023/12/03 05:28:15;;;;;;;34.42;10.63;;;-1.20;99.90;;;;;;5050760;28;20041;-66
2023/12/03 05:30:41;;;;;;;54.60;11.43;;;-0.80;99.90;;;;;;5049631;28;20842;-65
2023/12/03 05:33:07;;;;;;;30.40;10.55;;;-1.10;99.90;;;;;;5048841;28;20539;-64
2023/12/03 05:35:33;;;;;;;84.95;11.13;;;-1.10;99.90;;;;;;5052192;28;20032;-65
2023/12/03 05:37:59;;;;;;;44.35;10.77;;;-1.10;99.90;;;;;;5049065;28;20057;-64
2023/12/03 05:40:24;;;;;;;39.50;10.52;;;-1.10;99.90;;;;;;5036873;28;20685;-64
2023/12/03 05:42:50;;;;;;;59.28;11.10;;;-1.10;99.90;;;;;;5061647;28;20054;-65
2023/12/03 05:45:16;;;;;;;62.10;12.88;;;-1.10;99.90;;;;;;5042245;28;20090;-65
2023/12/03 05:47:42;;;;;;;30.13;11.82;;;-1.00;99.90;;;;;;5046719;28;20041;-65
2023/12/03 05:50:08;;;;;;;40.88;15.05;;;-1.00;99.90;;;;;;5048231;28;20072;-65
2023/12/03 05:52:33;;;;;;;79.85;15.75;;;-1.00;99.90;;;;;;5061372;28;20114;-65
2023/12/03 05:54:59;;;;;;;69.32;16.25;;;-1.00;99.90;;;;;;5062512;28;20065;-65
2023/12/03 05:57:25;;;;;;;47.70;16.25;;;-0.80;99.90;;;;;;5063954;28;20135;-66
2023/12/03 05:59:52;;;;;;;89.20;17.58;;;-0.80;99.90;;;;;;5046777;28;20091;-65
2023/12/03 06:02:18;;;;;;;68.72;18.02;;;-0.90;99.90;;;;;;5054567;28;20105;-65
2023/12/03 06:04:43;;;;;;;51.63;17.27;;;-0.80;99.90;;;;;;5069158;28;20047;-65
2023/12/03 06:07:09;;;;;;;39.05;16.73;;;-0.80;99.90;;;;;;5063793;28;20040;-65
2023/12/03 06:09:35;;;;;;;119.32;18.02;;;-0.80;99.90;;;;;;5052663;28;20041;-66
2023/12/03 06:12:01;;;;;;;77.07;17.73;;;-0.80;99.90;;;;;;5053413;28;20056;-66
2023/12/03 06:14:27;;;;;;;106.90;18.00;;;-0.80;99.90;;;;;;5059338;28;20130;-66
2023/12/03 06:16:53;;;;;;;112.70;19.02;;;-0.70;99.90;;;;;;5051178;28;20075;-65
2023/12/03 06:19:19;;;;;;;91.95;18.45;;;-0.60;99.90;;;;;;5058222;28;20043;-65
2023/12/03 06:21:44;;;;;;;122.07;18.10;;;-0.60;99.90;;;;;;5045064;28;20559;-65
2023/12/03 06:24:10;;;;;;;63.28;18.67;;;-0.60;99.90;;;;;;5063797;28;20458;-65
2023/12/03 06:26:36;;;;;;;68.70;16.92;;;-0.50;99.90;;;;;;5064174;28;20086;-66
2023/12/03 06:29:01;;;;;;;109.30;17.95;;;-0.50;99.90;;;;;;5061406;28;20053;-67
2023/12/03 06:31:28;;;;;;;93.03;18.55;;;-0.50;99.90;;;;;;5057536;28;20044;-66
2023/12/03 06:33:54;;;;;;;81.90;18.92;;;-0.30;99.90;;;;;;5064212;28;20498;-66
2023/12/03 06:36:20;;;;;;;82.57;19.77;;;-0.40;99.90;;;;;;5048425;28;20365;-65
2023/12/03 06:38:46;;;;;;;99.65;20.05;;;-0.40;99.90;;;;;;5056533;28;20127;-65
2023/12/03 06:41:12;;;;;;;112.07;20.77;;;-0.40;99.90;;;;;;5063705;28;20123;-65
2023/12/03 06:43:38;;;;;;;122.85;21.95;;;-0.40;99.90;;;;;;5063060;28;20043;-65
2023/12/03 06:46:03;;;;;;;114.25;21.92;;;-0.30;99.90;;;;;;5069861;28;20109;-65
2023/12/03 06:48:29;;;;;;;85.78;21.38;;;-0.30;99.90;;;;;;5047649;28;20052;-65
2023/12/03 06:50:55;;;;;;;92.28;20.98;;;0.00;99.90;;;;;;5061575;28;20055;-66
2023/12/03 06:53:23;;;;;;;60.78;19.10;;;-0.30;99.90;;;;;;5059205;28;20080;-65
2023/12/03 06:55:48;;;;;;;68.32;20.50;;;-0.30;99.90;;;;;;5066687;28;20079;-65
2023/12/03 06:58:14;;;;;;;62.58;18.67;;;-0.20;99.90;;;;;;5059110;28;20084;-65
2023/12/03 07:00:40;;;;;;;110.70;21.15;;;-0.20;99.90;;;;;;5057786;28;20052;-66
2023/12/03 07:03:06;;;;;;;98.20;21.10;;;-0.30;99.90;;;;;;5059776;28;20053;-65
2023/12/03 07:05:31;;;;;;;89.25;19.35;;;-0.20;99.90;;;;;;5059638;28;20036;-66
2023/12/03 07:07:57;;;;;;;65.60;19.45;;;-0.20;99.90;;;;;;5053861;28;20057;-66
2023/12/03 07:10:23;;;;;;;52.05;19.80;;;-0.10;99.90;;;;;;5057645;28;20416;-66
2023/12/03 07:12:48;;;;;;;104.30;20.58;;;-0.20;99.90;;;;;;5061238;28;20492;-65
2023/12/03 07:15:14;;;;;;;57.53;20.77;;;-0.10;99.90;;;;;;5060387;28;20074;-65
2023/12/03 07:17:40;;;;;;;105.30;23.27;;;-0.20;99.90;;;;;;5046054;28;20330;-66
2023/12/03 07:20:10;;;;;;;60.10;22.00;;;-0.20;99.90;;;;;;5060654;28;20048;-66
2023/12/03 07:22:36;;;;;;;63.67;21.75;;;-0.10;99.90;;;;;;5061940;28;20075;-66
2023/12/03 07:25:04;;;;;;;52.78;19.50;;;-0.20;99.90;;;;;;5061435;28;20048;-67
2023/12/03 07:27:30;;;;;;;71.55;21.33;;;0.20;99.90;;;;;;5060537;28;20125;-66
2023/12/03 07:29:57;;;;;;;81.57;22.17;;;-0.10;99.90;;;;;;5059011;28;20083;-65
2023/12/03 07:32:23;;;;;;;57.80;20.55;;;-0.10;99.90;;;;;;5064197;28;20137;-65
2023/12/03 07:34:49;;;;;;;65.05;20.50;;;-0.10;99.90;;;;;;5057375;28;20680;-65
2023/12/03 07:37:15;;;;;;;80.70;21.70;;;-0.10;99.90;;;;;;5051439;28;20044;-64
2023/12/03 07:39:40;;;;;;;63.58;20.92;;;0.00;99.90;;;;;;5057721;28;20045;-64
2023/12/03 07:42:06;;;;;;;91.07;22.25;;;0.00;99.90;;;;;;5059705;28;20052;-65
2023/12/03 07:44:32;;;;;;;100.10;20.33;;;0.00;99.90;;;;;;5059457;28;20043;-65
2023/12/03 07:46:58;;;;;;;70.97;19.50;;;0.90;99.90;;;;;;5039416;28;20101;-67
2023/12/03 07:49:24;;;;;;;83.60;21.02;;;0.00;99.90;;;;;;5055446;28;20509;-67
2023/12/03 07:51:53;;;;;;;76.13;21.40;;;0.10;99.90;;;;;;5055377;28;20484;-67
2023/12/03 07:54:19;;;;;;;58.65;18.17;;;0.10;99.90;;;;;;5067478;28;20083;-66
2023/12/03 07:56:44;;;;;;;79.88;18.23;;;0.10;99.90;;;;;;5046845;28;20087;-66
2023/12/03 07:59:11;;;;;;;48.38;16.38;;;0.10;99.90;;;;;;5055504;28;20926;-66
2023/12/03 08:01:37;;;;;;;60.95;17.52;;;0.10;99.90;;;;;;5052903;28;20047;-65
2023/12/03 08:04:06;;;;;;;62.30;15.70;;;0.10;99.90;;;;;;5054929;28;20056;-65
2023/12/03 08:06:32;;;;;;;63.78;15.85;;;0.10;99.90;;;;;;5058637;28;20048;-66
2023/12/03 08:08:59;;;;;;;56.72;14.45;;;0.10;99.90;;;;;;5054334;28;20049;-65
2023/12/03 08:11:25;;;;;;;48.55;13.77;;;0.10;99.90;;;;;;5050422;28;20082;-65
2023/12/03 08:13:53;;;;;;;56.05;13.90;;;0.20;99.90;;;;;;5057048;28;20049;-65
2023/12/03 08:16:19;;;;;;;58.28;15.07;;;0.20;99.90;;;;;;5060703;28;20156;-65
2023/12/03 08:18:45;;;;;;;49.70;14.52;;;1.10;99.90;;;;;;5056328;28;20218;-65
2023/12/03 08:21:11;;;;;;;65.32;15.27;;;0.30;99.90;;;;;;5032551;28;20051;-65
2023/12/03 08:23:37;;;;;;;56.85;15.43;;;0.20;99.90;;;;;;5043137;28;20049;-66
2023/12/03 08:26:04;;;;;;;59.53;17.52;;;0.20;99.90;;;;;;5055492;28;20508;-66
2023/12/03 08:28:30;;;;;;;64.15;17.85;;;0.10;99.90;;;;;;5056785;28;20043;-66
2023/12/03 08:30:55;;;;;;;63.15;17.42;;;0.20;99.90;;;;;;5062595;28;20036;-65
2023/12/03 08:33:21;;;;;;;66.80;17.83;;;0.20;99.90;;;;;;5059700;28;20477;-66
2023/12/03 08:35:47;;;;;;;66.53;18.00;;;0.20;99.90;;;;;;5068470;28;20051;-66
2023/12/03 08:38:13;;;;;;;58.42;17.10;;;0.20;99.90;;;;;;5061333;28;20050;-63
2023/12/03 08:40:39;;;;;;;62.17;19.50;;;0.20;99.90;;;;;;5059900;28;20475;-63
2023/12/03 08:43:05;;;;;;;65.57;18.13;;;0.30;99.90;;;;;;5059629;28;20083;-63
2023/12/03 08:45:33;;;;;;;76.05;19.67;;;0.30;99.90;;;;;;5057971;28;20060;-63
2023/12/03 08:48:00;;;;;;;70.45;19.02;;;0.30;99.90;;;;;;5060229;28;20128;-63
2023/12/03 08:50:28;;;;;;;64.53;19.95;;;0.30;99.90;;;;;;5052001;28;20048;-64
2023/12/03 08:52:55;;;;;;;70.95;20.38;;;0.50;99.90;;;;;;5061417;28;20079;-63
2023/12/03 08:55:21;;;;;;;73.13;20.77;;;0.30;99.90;;;;;;5061092;28;20044;-63
2023/12/03 08:57:47;;;;;;;70.30;20.13;;;0.30;99.90;;;;;;5063459;28;20040;-63
2023/12/03 09:00:15;;;;;;;82.35;22.00;;;0.40;99.90;;;;;;5048170;28;20500;-63
2023/12/03 09:02:45;;;;;;;65.50;18.85;;;0.40;99.90;;;;;;5026203;28;20048;-63
2023/12/03 09:05:11;;;;;;;74.07;20.52;;;0.40;99.90;;;;;;5060396;28;20590;-63
2023/12/03 09:07:37;;;;;;;81.13;23.00;;;0.50;99.90;;;;;;5063326;28;20079;-63
2023/12/03 09:10:03;;;;;;;77.35;24.60;;;0.50;99.90;;;;;;5058267;28;20170;-64
2023/12/03 09:12:29;;;;;;;83.47;23.67;;;0.50;99.90;;;;;;5060931;28;20056;-63
2023/12/03 09:14:55;;;;;;;84.63;24.10;;;0.80;99.90;;;;;;5060586;28;20522;-63
2023/12/03 09:17:21;;;;;;;79.15;23.38;;;0.60;99.90;;;;;;5064722;28;20051;-63
2023/12/03 09:19:47;;;;;;;80.80;23.80;;;0.60;99.90;;;;;;5060920;28;20397;-63
2023/12/03 09:22:12;;;;;;;78.78;24.40;;;0.60;99.90;;;;;;5061020;28;20623;-63
2023/12/03 09:24:38;;;;;;;88.13;25.63;;;0.60;99.90;;;;;;5061072;28;20509;-63
2023/12/03 09:27:04;;;;;;;82.80;27.40;;;1.10;99.90;;;;;;5058431;28;20051;-63
2023/12/03 09:29:30;;;;;;;90.20;29.80;;;0.70;99.90;;;;;;5061421;28;20051;-63
2023/12/03 09:31:56;;;;;;;89.53;29.77;;;0.70;99.90;;;;;;5062948;28;20049;-62
2023/12/03 09:34:21;;;;;;;95.53;30.35;;;0.70;99.90;;;;;;5043918;28;20131;-62
2023/12/03 09:36:47;;;;;;;85.45;29.42;;;0.70;99.90;;;;;;5059276;28;20044;-67
2023/12/03 09:39:13;;;;;;;86.15;29.15;;;0.80;99.90;;;;;;5050566;28;20087;-62
2023/12/03 09:41:49;;;;;;;77.00;27.45;;;0.80;99.90;;;;;;5062840;28;20102;-63
2023/12/03 09:44:28;;;;;;;78.82;27.15;;;0.80;99.90;;;;;;5059276;28;20778;-62
2023/12/03 09:46:54;;;;;;;78.32;27.25;;;0.80;99.90;;;;;;5047364;28;20045;-63
2023/12/03 09:49:23;;;;;;;82.00;30.13;;;0.80;99.90;;;;;;5065954;28;20036;-63
2023/12/03 09:51:50;;;;;;;80.82;29.38;;;0.80;99.90;;;;;;5061984;28;20051;-62
2023/12/03 09:54:16;;;;;;;83.00;31.73;;;0.90;99.90;;;;;;5046359;28;20095;-62
2023/12/03 09:56:43;;;;;;;78.68;30.58;;;0.90;99.90;;;;;;5048842;28;20485;-62
2023/12/03 09:59:13;;;;;;;77.78;30.88;;;0.90;99.90;;;;;;5065272;28;20770;-62
2023/12/03 10:01:39;;;;;;;74.40;30.33;;;1.00;99.90;;;;;;5062986;28;20048;-62
2023/12/03 10:04:05;;;;;;;77.18;32.20;;;0.90;99.90;;;;;;5065540;28;20474;-63
2023/12/03 10:06:35;;;;;;;78.18;31.92;;;0.90;99.90;;;;;;5066464;28;20131;-63
2023/12/03 10:09:05;;;;;;;75.75;31.63;;;0.90;99.90;;;;;;5063850;28;20040;-63
2023/12/03 10:11:39;;;;;;;69.28;30.23;;;0.90;99.90;;;;;;5065181;28;20036;-63
2023/12/03 10:14:15;;;;;;;70.95;28.60;;;1.00;99.90;;;;;;5052591;28;20133;-63
2023/12/03 10:16:47;;;;;;;71.75;29.23;;;1.00;99.90;;;;;;5048279;28;20891;-63
2023/12/03 10:19:21;;;;;;;71.88;30.08;;;1.00;99.90;;;;;;5035523;28;20149;-63
2023/12/03 10:21:51;;;;;;;72.53;29.75;;;1.00;99.90;;;;;;5045201;28;20688;-62
2023/12/03 10:24:19;;;;;;;75.75;31.90;;;1.00;99.90;;;;;;5043777;28;20099;-63
2023/12/03 10:26:55;;;;;;;77.32;31.48;;;1.10;99.90;;;;;;5045609;28;20083;-64
2023/12/03 10:29:25;;;;;;;73.68;31.83;;;1.10;99.90;;;;;;5061551;28;20084;-62
2023/12/03 10:31:51;;;;;;;75.97;31.60;;;1.10;99.90;;;;;;5026050;28;20110;-63
2023/12/03 10:34:18;;;;;;;66.18;30.48;;;1.20;99.90;;;;;;5058173;28;20052;-63
2023/12/03 10:36:43;;;;;;;72.28;30.83;;;1.20;99.90;;;;;;5036833;28;20550;-63
2023/12/03 10:39:09;;;;;;;66.50;29.75;;;1.20;99.90;;;;;;5058260;28;20139;-62
2023/12/03 10:41:35;;;;;;;75.00;29.40;;;1.20;99.90;;;;;;5048209;28;20524;-63
2023/12/03 10:44:02;;;;;;;62.47;29.85;;;1.20;99.90;;;;;;5047127;28;20040;-63
2023/12/03 10:46:28;;;;;;;72.32;30.55;;;1.20;99.90;;;;;;5048634;28;21017;-62
2023/12/03 10:48:55;;;;;;;66.10;29.85;;;1.50;99.90;;;;;;5056112;28;20037;-63
2023/12/03 10:51:21;;;;;;;68.93;31.45;;;1.30;99.90;;;;;;5045377;28;20135;-63
2023/12/03 10:53:47;;;;;;;67.63;30.85;;;1.30;99.90;;;;;;5057222;28;20040;-62
2023/12/03 10:56:15;;;;;;;63.08;28.48;;;1.60;99.90;;;;;;5060315;28;20497;-64
2023/12/03 10:58:42;;;;;;;64.88;30.60;;;2.00;99.90;;;;;;5049696;28;20465;-64
2023/12/03 11:01:20;;;;;;;67.07;30.33;;;1.60;99.90;;;;;;5054953;28;20045;-63
2023/12/03 11:03:59;;;;;;;62.25;30.02;;;1.40;99.90;;;;;;5055680;28;20047;-64
2023/12/03 11:06:25;;;;;;;63.22;29.70;;;1.40;99.90;;;;;;5057649;28;20041;-64
2023/12/03 11:08:52;;;;;;;68.25;30.88;;;1.40;99.90;;;;;;5053753;28;21102;-65
2023/12/03 11:11:23;;;;;;;65.53;29.95;;;1.40;99.90;;;;;;5054999;28;20503;-65
2023/12/03 11:13:52;;;;;;;57.85;27.92;;;1.40;99.90;;;;;;5055528;28;20041;-63
2023/12/03 11:16:19;;;;;;;66.00;31.65;;;1.40;99.90;;;;;;5052369;28;20532;-64
2023/12/03 11:18:53;;;;;;;60.40;30.25;;;1.50;99.90;;;;;;5054343;28;20874;-63
2023/12/03 11:21:28;;;;;;;58.08;29.65;;;1.50;99.90;;;;;;5058653;28;20047;-63
2023/12/03 11:24:18;;;;;;;60.45;29.20;;;1.50;99.90;;;;;;5038542;28;20409;-63
2023/12/03 11:26:45;;;;;;;67.60;30.77;;;1.50;99.90;;;;;;5055903;28;20048;-63
2023/12/03 11:29:11;;;;;;;65.35;30.63;;;1.50;99.90;;;;;;5051219;28;20126;-63
2023/12/03 11:31:37;;;;;;;63.67;31.15;;;1.50;99.90;;;;;;5052265;28;20098;-62
2023/12/03 11:34:05;;;;;;;51.00;26.38;;;1.50;99.90;;;;;;5050404;28;20481;-63
2023/12/03 11:37:00;;;;;;;59.72;28.48;;;2.00;99.90;;;;;;5052875;28;20137;-63
2023/12/03 11:39:27;;;;;;;55.53;27.88;;;1.50;99.90;;;;;;5033134;28;20091;-63
2023/12/03 11:42:03;;;;;;;51.97;27.23;;;1.50;99.90;;;;;;5049562;28;20183;-63
2023/12/03 11:44:29;;;;;;;50.88;25.92;;;1.50;99.90;;;;;;5040967;28;20059;-63
2023/12/03 11:47:03;;;;;;;46.47;25.20;;;1.40;99.90;;;;;;5047370;28;20051;-63
2023/12/03 11:49:30;;;;;;;46.45;23.98;;;1.40;99.90;;;;;;5055477;28;20059;-63
2023/12/03 11:51:56;;;;;;;47.20;25.25;;;1.40;99.90;;;;;;5031735;28;20041;-63
2023/12/03 11:54:28;;;;;;;46.38;24.02;;;1.40;99.90;;;;;;5054939;28;20048;-63
2023/12/03 11:56:54;;;;;;;42.47;22.98;;;2.40;99.90;;;;;;5037432;28;20044;-62
2023/12/03 11:59:21;;;;;;;44.88;23.75;;;1.50;99.90;;;;;;5049489;28;20078;-62
2023/12/03 12:01:47;;;;;;;45.85;23.85;;;1.30;99.90;;;;;;5034007;28;20105;-63
2023/12/03 12:04:23;;;;;;;52.15;24.83;;;1.30;99.90;;;;;;5056300;28;20763;-64
2023/12/03 12:06:53;;;;;;;47.10;24.42;;;1.30;99.90;;;;;;5040116;28;20071;-64
2023/12/03 12:09:23;;;;;;;44.08;23.85;;;1.30;99.90;;;;;;5057686;28;20048;-64
2023/12/03 12:11:49;;;;;;;45.90;23.65;;;1.30;99.90;;;;;;5055092;28;20048;-63
2023/12/03 12:14:17;;;;;;;41.17;22.02;;;1.30;99.90;;;;;;5029622;28;20767;-64
2023/12/03 12:16:44;;;;;;;45.95;23.95;;;1.30;99.90;;;;;;5057141;28;20053;-64
2023/12/03 12:19:09;;;;;;;45.67;23.90;;;1.30;99.90;;;;;;5064121;28;20052;-64
2023/12/03 12:21:51;;;;;;;46.03;22.95;;;1.30;99.90;;;;;;5057568;28;20056;-63
2023/12/03 12:24:16;;;;;;;45.38;23.33;;;1.30;99.90;;;;;;5040952;28;20055;-64
2023/12/03 12:26:42;;;;;;;47.38;24.13;;;1.30;99.90;;;;;;5048327;28;20779;-64
2023/12/03 12:29:08;;;;;;;43.85;23.27;;;1.40;99.90;;;;;;5051529;28;20059;-64
2023/12/03 12:31:34;;;;;;;48.85;22.90;;;1.40;99.90;;;;;;5050341;28;20712;-65
2023/12/03 12:34:00;;;;;;;46.45;23.33;;;1.40;99.90;;;;;;5042051;28;20067;-65
2023/12/03 12:36:26;;;;;;;44.00;23.45;;;1.40;99.90;;;;;;5052084;28;20052;-64